Time;durP1;ratioP1;P1;durP2;ratioP2;P2;SDS_P1;SDS_P2;PMS_P1;PMS_P2;Temp;Humidity;BMP_temperature;BMP_pressure;BME280_temperature;BME280_humidity;BME280_pressure;Samples;Min_cycle;Max_cycle;Signal;HPM_P1;HPM_P2
2021/11/23 00:00:37;;;;;;;8.30;6.43;;;2.30;1.00;;;;;;5058165;28;20292;-87
2021/11/23 00:03:05;;;;;;;7.30;5.43;;;2.30;1.00;;;;;;5059024;28;20453;-87
2021/11/23 00:05:33;;;;;;;8.50;6.70;;;2.30;1.00;;;;;;5068922;28;20209;-87
2021/11/23 00:08:02;;;;;;;7.22;4.78;;;2.30;1.00;;;;;;5080275;28;20393;-87
2021/11/23 00:10:30;;;;;;;7.45;5.95;;;2.40;1.00;;;;;;5068495;28;20259;-87
2021/11/23 00:12:57;;;;;;;6.07;5.30;;;2.40;1.00;;;;;;5059195;28;20232;-89
2021/11/23 00:15:24;;;;;;;7.55;6.45;;;2.40;1.00;;;;;;5085642;28;20212;-89
2021/11/23 00:17:52;;;;;;;7.70;6.50;;;2.40;1.00;;;;;;5084519;28;20228;-89
2021/11/23 00:20:20;;;;;;;8.98;6.60;;;2.40;1.00;;;;;;5066317;28;20244;-88
2021/11/23 00:22:47;;;;;;;12.43;8.43;;;2.40;1.00;;;;;;5091735;28;20242;-86
2021/11/23 00:25:16;;;;;;;9.38;6.22;;;2.40;1.00;;;;;;5098722;28;20230;-86
2021/11/23 00:27:43;;;;;;;9.93;7.20;;;2.40;1.00;;;;;;5099977;28;20220;-89
2021/11/23 00:30:11;;;;;;;9.00;7.47;;;2.40;1.00;;;;;;5100771;28;20251;-89
2021/11/23 00:32:38;;;;;;;7.97;6.78;;;2.40;1.00;;;;;;5064278;28;20237;-87
2021/11/23 00:35:06;;;;;;;7.72;6.25;;;2.40;1.00;;;;;;5086281;28;20227;-88
2021/11/23 00:37:33;;;;;;;11.90;7.13;;;2.50;1.00;;;;;;5084615;28;20321;-87
2021/11/23 00:40:03;;;;;;;7.80;6.65;;;2.40;1.00;;;;;;5100883;27;20680;-88
2021/11/23 00:42:31;;;;;;;10.05;7.50;;;2.40;1.00;;;;;;5084526;28;20277;-88
2021/11/23 00:44:59;;;;;;;7.90;6.93;;;2.40;1.00;;;;;;5078850;28;20342;-86
2021/11/23 00:47:26;;;;;;;9.85;6.80;;;2.40;1.00;;;;;;5083442;28;20229;-86
2021/11/23 00:49:53;;;;;;;11.45;7.60;;;2.40;1.00;;;;;;5058948;28;20231;-88
2021/11/23 00:52:22;;;;;;;9.52;8.07;;;2.40;1.00;;;;;;5064560;28;20249;-86
2021/11/23 00:54:50;;;;;;;10.95;7.28;;;2.50;1.00;;;;;;5058581;28;20279;-87
2021/11/23 00:57:17;;;;;;;9.27;8.30;;;2.40;1.00;;;;;;5060916;28;20229;-87
2021/11/23 00:59:46;;;;;;;10.82;7.63;;;2.40;1.00;;;;;;5061897;28;20307;-85
2021/11/23 01:02:13;;;;;;;9.73;8.18;;;2.50;1.00;;;;;;5076925;28;20220;-87
2021/11/23 01:04:40;;;;;;;14.07;9.02;;;2.50;1.00;;;;;;5060711;28;20244;-87
2021/11/23 01:07:10;;;;;;;9.32;7.28;;;2.40;1.00;;;;;;5063483;28;20232;-86
2021/11/23 01:09:37;;;;;;;9.50;7.63;;;2.50;1.00;;;;;;5080008;28;20306;-85
2021/11/23 01:12:05;;;;;;;11.43;8.93;;;2.50;1.00;;;;;;5067974;28;20684;-89
2021/11/23 01:14:32;;;;;;;11.02;7.70;;;2.50;1.00;;;;;;5065975;28;20233;-88
2021/11/23 01:17:01;;;;;;;9.15;7.65;;;2.40;1.00;;;;;;5066226;28;20232;-86
2021/11/23 01:19:33;;;;;;;9.68;8.15;;;2.40;1.00;;;;;;5063643;28;20220;-86
2021/11/23 01:22:01;;;;;;;8.65;7.10;;;2.50;1.00;;;;;;5064241;28;20335;-87
2021/11/23 01:24:28;;;;;;;13.73;8.68;;;2.50;1.00;;;;;;5084419;28;20251;-87
2021/11/23 01:26:58;;;;;;;11.68;8.35;;;2.40;1.00;;;;;;5067658;28;20294;-87
2021/11/23 01:29:26;;;;;;;11.07;9.98;;;2.40;1.00;;;;;;5067498;28;20496;-87
2021/11/23 01:31:55;;;;;;;10.77;8.27;;;2.40;1.00;;;;;;5084952;28;20588;-87
2021/11/23 01:34:24;;;;;;;9.68;8.50;;;2.50;1.00;;;;;;5059233;28;20315;-86
2021/11/23 01:36:51;;;;;;;11.20;8.60;;;2.40;1.00;;;;;;5064837;28;20270;-86
2021/11/23 01:39:19;;;;;;;10.05;8.45;;;2.50;1.00;;;;;;5066444;28;20235;-88
2021/11/23 01:41:46;;;;;;;12.80;9.20;;;2.50;1.00;;;;;;5083013;28;20220;-87
2021/11/23 01:44:14;;;;;;;12.70;8.80;;;2.40;1.00;;;;;;5084888;28;20255;-87
2021/11/23 01:46:41;;;;;;;11.85;7.75;;;2.40;1.00;;;;;;5080147;28;20224;-88
2021/11/23 01:49:08;;;;;;;9.32;8.43;;;2.50;1.00;;;;;;5064038;28;20246;-86
2021/11/23 01:51:37;;;;;;;9.55;8.27;;;2.50;1.00;;;;;;5064235;28;20294;-86
2021/11/23 01:54:04;;;;;;;9.50;8.13;;;2.40;1.00;;;;;;5066891;28;20228;-87
2021/11/23 01:56:45;;;;;;;10.73;8.13;;;2.40;1.00;;;;;;5080049;28;20283;-88
2021/11/23 01:59:13;;;;;;;9.57;8.45;;;2.40;1.00;;;;;;5073858;28;20216;-86
2021/11/23 02:01:40;;;;;;;16.98;9.05;;;2.30;1.00;;;;;;5062833;28;20250;-87
2021/11/23 02:04:08;;;;;;;9.00;7.82;;;2.30;1.00;;;;;;5061312;28;20235;-88
2021/11/23 02:06:37;;;;;;;9.30;7.65;;;2.30;1.00;;;;;;5079901;28;20324;-87
2021/11/23 02:09:05;;;;;;;9.50;8.60;;;2.40;1.00;;;;;;5062842;28;20235;-87
2021/11/23 02:11:32;;;;;;;10.90;8.95;;;2.40;1.00;;;;;;5067220;28;20245;-87
2021/11/23 02:14:00;;;;;;;9.35;8.45;;;2.40;1.00;;;;;;5078618;28;20441;-86
2021/11/23 02:16:27;;;;;;;11.38;9.52;;;2.40;1.00;;;;;;5080983;28;21741;-87
2021/11/23 02:18:55;;;;;;;12.82;9.02;;;2.40;1.00;;;;;;5077207;28;21072;-88
2021/11/23 02:21:23;;;;;;;10.40;8.90;;;2.40;1.00;;;;;;5058035;28;21795;-87
2021/11/23 02:23:51;;;;;;;12.18;9.00;;;2.40;1.00;;;;;;5078192;28;20310;-86
2021/11/23 02:26:18;;;;;;;10.27;9.13;;;2.30;1.00;;;;;;5080643;28;20256;-86
2021/11/23 02:28:45;;;;;;;11.27;9.40;;;2.40;1.00;;;;;;5062602;28;20232;-86
2021/11/23 02:31:13;;;;;;;12.73;9.18;;;2.40;1.00;;;;;;5074751;28;20733;-86
2021/11/23 02:33:41;;;;;;;10.48;9.13;;;2.50;1.00;;;;;;5077489;28;20220;-87
2021/11/23 02:36:10;;;;;;;11.18;9.80;;;2.60;1.00;;;;;;5086276;28;20216;-88
2021/11/23 02:38:41;;;;;;;11.18;9.50;;;2.50;1.00;;;;;;5069587;28;20224;-87
2021/11/23 02:41:10;;;;;;;10.23;9.27;;;2.50;1.00;;;;;;5085146;28;20247;-87
2021/11/23 02:43:38;;;;;;;11.52;9.50;;;2.40;1.00;;;;;;5071732;28;22028;-86
2021/11/23 02:46:08;;;;;;;12.35;8.95;;;2.40;1.00;;;;;;5091061;28;20224;-87
2021/11/23 02:48:37;;;;;;;10.70;9.60;;;2.30;1.00;;;;;;5094112;28;20220;-88
2021/11/23 02:51:07;;;;;;;15.70;9.38;;;2.40;1.00;;;;;;5093040;28;20208;-87
2021/11/23 02:53:35;;;;;;;15.73;10.80;;;2.40;1.00;;;;;;5064935;28;20220;-87
2021/11/23 02:56:04;;;;;;;12.10;9.93;;;2.50;1.00;;;;;;5078447;28;20951;-87
2021/11/23 02:58:33;;;;;;;10.77;7.95;;;2.60;1.00;;;;;;5057269;28;20316;-88
2021/11/23 03:01:03;;;;;;;10.48;9.18;;;2.60;1.00;;;;;;5083361;28;21009;-88
2021/11/23 03:03:32;;;;;;;12.02;9.60;;;2.60;1.00;;;;;;5062449;28;20929;-87
2021/11/23 03:06:02;;;;;;;10.80;9.70;;;2.60;1.00;;;;;;5059580;28;20277;-89
2021/11/23 03:08:29;;;;;;;12.65;10.60;;;2.60;1.00;;;;;;5084737;28;20222;-87
2021/11/23 03:10:56;;;;;;;11.88;9.40;;;2.70;1.00;;;;;;5083614;28;20220;-89
2021/11/23 03:13:25;;;;;;;11.27;10.18;;;2.80;1.00;;;;;;5083393;28;22080;-87
2021/11/23 03:15:53;;;;;;;10.18;8.80;;;2.90;1.00;;;;;;5066236;28;20470;-87
2021/11/23 03:18:20;;;;;;;11.98;9.40;;;3.00;1.00;;;;;;5085177;28;20704;-86
2021/11/23 03:20:47;;;;;;;10.63;9.52;;;3.00;1.00;;;;;;5066269;28;20228;-87
2021/11/23 03:23:15;;;;;;;11.88;9.32;;;3.10;1.00;;;;;;5064908;28;20228;-87
2021/11/23 03:25:45;;;;;;;12.38;10.45;;;3.20;1.00;;;;;;5083855;28;20246;-89
2021/11/23 03:28:13;;;;;;;10.63;8.50;;;3.30;1.00;;;;;;5067424;28;20387;-88
2021/11/23 03:30:42;;;;;;;10.98;9.88;;;3.40;1.00;;;;;;5070787;28;20221;-88
2021/11/23 03:33:12;;;;;;;16.30;9.98;;;3.40;1.00;;;;;;5066574;28;20314;-87
2021/11/23 03:35:44;;;;;;;12.20;9.75;;;3.40;1.00;;;;;;5086916;28;20231;-87
2021/11/23 03:38:15;;;;;;;11.75;9.80;;;3.40;1.00;;;;;;5072832;28;20232;-87
2021/11/23 03:40:46;;;;;;;11.43;10.20;;;3.40;1.00;;;;;;5077501;28;20229;-87
2021/11/23 03:43:14;;;;;;;11.43;10.23;;;3.40;1.00;;;;;;5070033;28;21056;-86
2021/11/23 03:45:43;;;;;;;12.13;9.68;;;3.40;1.00;;;;;;5081441;28;20844;-87
2021/11/23 03:48:10;;;;;;;10.77;9.68;;;3.40;1.00;;;;;;5060739;28;20236;-86
2021/11/23 03:50:38;;;;;;;12.48;10.35;;;3.40;1.00;;;;;;5080319;28;20235;-87
2021/11/23 03:53:05;;;;;;;13.82;10.65;;;3.40;1.00;;;;;;5084508;28;20243;-87
2021/11/23 03:55:35;;;;;;;12.82;10.35;;;3.40;1.00;;;;;;5093162;28;20220;-87
2021/11/23 03:58:02;;;;;;;11.70;10.45;;;3.40;1.00;;;;;;5077465;28;20217;-87
2021/11/23 04:00:30;;;;;;;13.45;10.68;;;3.50;1.00;;;;;;5072904;28;20275;-88
2021/11/23 04:02:59;;;;;;;11.35;10.02;;;3.50;1.00;;;;;;5052981;28;20223;-86
2021/11/23 04:05:29;;;;;;;11.88;10.68;;;3.50;1.00;;;;;;5056813;28;20259;-85
2021/11/23 04:07:57;;;;;;;11.43;10.13;;;3.50;1.00;;;;;;5059327;28;20235;-85
2021/11/23 04:10:25;;;;;;;18.48;10.80;;;3.50;1.00;;;;;;5080603;28;20225;-86
2021/11/23 04:12:53;;;;;;;12.27;10.30;;;3.50;1.00;;;;;;5081271;28;20244;-88
2021/11/23 04:15:20;;;;;;;12.85;10.30;;;3.50;1.00;;;;;;5062661;28;20220;-85
2021/11/23 04:17:48;;;;;;;12.75;11.15;;;3.50;1.00;;;;;;5073777;28;20216;-86
2021/11/23 04:20:17;;;;;;;13.75;10.88;;;3.50;1.00;;;;;;5064969;28;20241;-85
2021/11/23 04:22:45;;;;;;;13.85;9.82;;;3.50;1.00;;;;;;5082348;28;20254;-86
2021/11/23 04:25:13;;;;;;;13.63;10.75;;;3.60;1.00;;;;;;5068174;28;20609;-86
2021/11/23 04:27:41;;;;;;;15.25;10.40;;;3.60;1.00;;;;;;5083983;28;20208;-86
2021/11/23 04:30:12;;;;;;;14.10;11.05;;;3.60;1.00;;;;;;5106126;27;20239;-86
2021/11/23 04:32:40;;;;;;;17.27;10.63;;;3.70;1.00;;;;;;5089467;27;20228;-87
2021/11/23 04:35:08;;;;;;;14.07;11.75;;;3.70;1.00;;;;;;5097273;28;20235;-86
2021/11/23 04:37:37;;;;;;;14.32;9.73;;;3.80;1.00;;;;;;5092461;28;20221;-87
2021/11/23 04:40:09;;;;;;;13.77;11.02;;;3.90;1.00;;;;;;5087297;28;20223;-87
2021/11/23 04:42:37;;;;;;;13.18;11.20;;;3.90;1.00;;;;;;5066030;28;20292;-87
2021/11/23 04:45:07;;;;;;;14.15;12.07;;;3.90;1.00;;;;;;5090656;28;20393;-89
2021/11/23 04:47:34;;;;;;;14.38;11.15;;;3.80;1.00;;;;;;5096718;28;20223;-88
2021/11/23 04:50:02;;;;;;;14.48;12.40;;;3.90;1.00;;;;;;5076222;28;20224;-89
2021/11/23 04:52:29;;;;;;;13.80;12.30;;;3.90;1.00;;;;;;5078083;28;20300;-86
2021/11/23 04:54:58;;;;;;;17.45;12.00;;;3.90;1.00;;;;;;5081442;28;20233;-85
2021/11/23 04:57:26;;;;;;;16.60;12.55;;;3.90;1.00;;;;;;5085320;28;20228;-87
2021/11/23 04:59:55;;;;;;;15.23;12.63;;;3.90;1.00;;;;;;5083817;28;20213;-88
2021/11/23 05:02:23;;;;;;;18.25;12.35;;;4.00;1.00;;;;;;5064312;28;20228;-87
2021/11/23 05:04:53;;;;;;;17.50;13.23;;;4.00;1.00;;;;;;5088776;28;20208;-87
2021/11/23 05:07:21;;;;;;;17.20;12.88;;;4.10;1.00;;;;;;5082751;28;20221;-87
2021/11/23 05:09:49;;;;;;;16.58;13.18;;;4.10;1.00;;;;;;5064275;28;20228;-86
2021/11/23 05:12:20;;;;;;;17.70;15.55;;;4.20;1.00;;;;;;5084899;28;20229;-87
2021/11/23 05:14:48;;;;;;;14.50;11.90;;;4.20;1.00;;;;;;5070992;28;20238;-86
2021/11/23 05:17:27;;;;;;;15.48;13.30;;;4.20;1.00;;;;;;5064137;28;21097;-84
2021/11/23 05:19:57;;;;;;;17.73;12.23;;;4.20;1.00;;;;;;5072630;28;20220;-83
2021/11/23 05:22:27;;;;;;;17.05;13.00;;;4.30;1.00;;;;;;5068303;28;20335;-83
2021/11/23 05:24:54;;;;;;;20.48;13.38;;;4.40;1.00;;;;;;5069072;28;20220;-82
2021/11/23 05:27:26;;;;;;;17.73;13.10;;;4.40;1.00;;;;;;5056913;28;20228;-82
2021/11/23 05:30:00;;;;;;;16.77;13.02;;;4.50;1.00;;;;;;5061658;28;20223;-84
2021/11/23 05:32:36;;;;;;;21.30;14.90;;;4.60;1.00;;;;;;5060442;28;20232;-84
2021/11/23 05:35:06;;;;;;;16.30;12.63;;;4.70;1.00;;;;;;5070944;28;20212;-84
2021/11/23 05:37:34;;;;;;;16.40;13.25;;;4.70;1.00;;;;;;5057438;28;20730;-84
2021/11/23 05:40:01;;;;;;;18.15;14.15;;;4.80;1.00;;;;;;5073014;28;21039;-84
2021/11/23 05:42:30;;;;;;;20.58;15.05;;;4.80;1.00;;;;;;5048579;28;20288;-84
2021/11/23 05:45:00;;;;;;;22.25;15.30;;;4.80;1.00;;;;;;5076046;28;20291;-84
2021/11/23 05:47:30;;;;;;;20.50;15.18;;;4.80;1.00;;;;;;5065948;28;20797;-84
2021/11/23 05:49:57;;;;;;;19.05;14.45;;;4.80;1.00;;;;;;5058640;28;20287;-85
2021/11/23 05:52:24;;;;;;;18.88;13.75;;;4.80;1.00;;;;;;5082935;28;20323;-85
2021/11/23 05:54:52;;;;;;;18.92;13.73;;;4.90;1.00;;;;;;5069249;28;20229;-85
2021/11/23 05:57:19;;;;;;;21.23;15.48;;;4.90;1.00;;;;;;5055928;28;20237;-83
2021/11/23 05:59:47;;;;;;;23.00;14.82;;;4.90;1.00;;;;;;5058817;28;20219;-84
2021/11/23 06:02:14;;;;;;;18.50;15.15;;;4.90;1.00;;;;;;5058221;28;20232;-83
2021/11/23 06:04:43;;;;;;;19.08;14.90;;;4.90;1.00;;;;;;5064110;28;20311;-84
2021/11/23 06:07:10;;;;;;;21.42;14.55;;;5.00;1.00;;;;;;5054905;28;20279;-83
2021/11/23 06:09:37;;;;;;;20.58;15.65;;;5.00;1.00;;;;;;5070578;28;20299;-84
2021/11/23 06:12:06;;;;;;;20.15;16.15;;;5.00;1.00;;;;;;5070357;28;21134;-83
2021/11/23 06:14:33;;;;;;;26.33;15.70;;;5.00;1.00;;;;;;5070481;28;22306;-84
2021/11/23 06:17:03;;;;;;;20.88;14.93;;;5.00;1.00;;;;;;5056089;28;20224;-84
2021/11/23 06:19:32;;;;;;;23.17;15.35;;;5.10;1.00;;;;;;5052003;28;20237;-85
2021/11/23 06:21:59;;;;;;;22.30;15.82;;;5.10;1.00;;;;;;5058423;28;20239;-84
2021/11/23 06:24:26;;;;;;;22.80;16.00;;;5.10;1.00;;;;;;5081419;28;20228;-84
2021/11/23 06:26:55;;;;;;;19.92;15.07;;;5.10;1.00;;;;;;5063425;28;20225;-86
2021/11/23 06:29:22;;;;;;;23.67;15.45;;;5.20;1.00;;;;;;5060475;28;20225;-81
2021/11/23 06:31:49;;;;;;;20.48;15.80;;;5.20;1.00;;;;;;5052487;28;20228;-78
2021/11/23 06:34:17;;;;;;;18.38;15.55;;;5.10;1.00;;;;;;5054306;28;20335;-81
2021/11/23 06:36:45;;;;;;;24.38;17.08;;;5.20;1.00;;;;;;5067407;28;20228;-79
2021/11/23 06:39:13;;;;;;;21.83;14.60;;;5.20;1.00;;;;;;5058590;28;20975;-80
2021/11/23 06:41:40;;;;;;;25.75;16.05;;;5.20;1.00;;;;;;5077205;28;20220;-78
2021/11/23 06:44:08;;;;;;;30.33;19.13;;;5.20;1.00;;;;;;5079007;28;20282;-78
2021/11/23 06:46:35;;;;;;;30.00;17.73;;;5.20;1.00;;;;;;5084546;28;20228;-77
2021/11/23 06:49:05;;;;;;;26.70;16.88;;;5.20;1.00;;;;;;5076580;28;20695;-79
2021/11/23 06:51:34;;;;;;;24.70;16.27;;;5.30;1.00;;;;;;5080104;28;20251;-78
2021/11/23 06:54:01;;;;;;;22.80;16.92;;;5.30;1.00;;;;;;5066394;28;20254;-78
2021/11/23 06:56:28;;;;;;;23.67;16.95;;;5.30;1.00;;;;;;5076398;28;20228;-78
2021/11/23 06:59:00;;;;;;;24.67;17.35;;;5.40;1.00;;;;;;5089767;28;20221;-76
2021/11/23 07:01:30;;;;;;;23.25;15.80;;;5.30;1.00;;;;;;5097584;28;20243;-77
2021/11/23 07:03:58;;;;;;;23.05;16.23;;;5.30;1.00;;;;;;5094102;28;20216;-78
2021/11/23 07:06:24;;;;;;;27.73;17.65;;;5.30;1.00;;;;;;5082737;28;21119;-78
2021/11/23 07:08:53;;;;;;;27.77;17.67;;;5.30;1.00;;;;;;5065026;28;20225;-77
2021/11/23 07:11:20;;;;;;;28.77;18.25;;;5.30;1.00;;;;;;5074286;28;20228;-78
2021/11/23 07:13:48;;;;;;;27.35;17.55;;;5.40;1.00;;;;;;5070430;28;20292;-78
2021/11/23 07:16:15;;;;;;;28.48;17.05;;;5.40;1.00;;;;;;5070712;28;20220;-78
2021/11/23 07:18:42;;;;;;;22.83;17.67;;;5.40;1.00;;;;;;5055188;28;20228;-78
2021/11/23 07:21:09;;;;;;;25.30;16.10;;;5.40;1.00;;;;;;5065747;28;20341;-77
2021/11/23 07:23:36;;;;;;;23.13;15.73;;;5.40;1.00;;;;;;5069799;28;20277;-76
2021/11/23 07:26:04;;;;;;;24.27;16.40;;;5.50;1.00;;;;;;5069661;28;20382;-78
2021/11/23 07:28:31;;;;;;;31.70;18.48;;;5.50;1.00;;;;;;5066109;28;20231;-76
2021/11/23 07:30:58;;;;;;;50.35;19.88;;;5.50;1.00;;;;;;5070373;28;21126;-77
2021/11/23 07:33:25;;;;;;;28.23;18.30;;;5.50;1.00;;;;;;5074564;28;20225;-77
2021/11/23 07:35:53;;;;;;;24.38;17.90;;;5.50;1.00;;;;;;5065041;28;20322;-77
2021/11/23 07:38:21;;;;;;;26.90;18.23;;;5.60;1.00;;;;;;5064853;28;21132;-76
2021/11/23 07:40:48;;;;;;;22.08;15.48;;;5.60;1.00;;;;;;5065205;28;20217;-77
2021/11/23 07:43:16;;;;;;;27.00;16.73;;;5.60;1.00;;;;;;5062180;28;20227;-76
2021/11/23 07:45:46;;;;;;;23.50;16.38;;;5.70;1.00;;;;;;5068367;28;20709;-78
2021/11/23 07:48:13;;;;;;;22.35;16.38;;;5.70;1.00;;;;;;5063875;28;20298;-77
2021/11/23 07:50:41;;;;;;;21.50;14.55;;;5.70;1.00;;;;;;5071138;28;20669;-77
2021/11/23 07:53:09;;;;;;;23.27;15.02;;;5.70;1.00;;;;;;5064359;28;20251;-76
2021/11/23 07:55:36;;;;;;;22.10;15.88;;;5.70;1.00;;;;;;5078112;28;20243;-77
2021/11/23 07:58:04;;;;;;;22.48;15.88;;;5.70;1.00;;;;;;5071920;28;20221;-78
2021/11/23 08:00:32;;;;;;;19.17;13.98;;;5.70;1.00;;;;;;5053074;28;20232;-77
2021/11/23 08:02:59;;;;;;;18.50;13.05;;;5.80;1.00;;;;;;5067984;28;20224;-77
2021/11/23 08:05:26;;;;;;;23.60;14.55;;;5.80;1.00;;;;;;5072408;28;20225;-78
2021/11/23 08:07:53;;;;;;;19.00;13.90;;;5.80;1.00;;;;;;5072192;28;20224;-78
2021/11/23 08:10:20;;;;;;;18.40;12.30;;;5.80;1.00;;;;;;5073958;28;20225;-77
2021/11/23 08:12:48;;;;;;;19.38;13.57;;;5.80;1.00;;;;;;5072973;28;20679;-77
2021/11/23 08:15:15;;;;;;;21.98;14.27;;;5.90;1.00;;;;;;5073083;28;20227;-76
2021/11/23 08:17:46;;;;;;;21.10;12.77;;;5.90;1.00;;;;;;5077937;28;20220;-79
2021/11/23 08:20:13;;;;;;;19.55;13.55;;;5.90;1.00;;;;;;5067933;28;20283;-77
2021/11/23 08:22:40;;;;;;;22.85;13.25;;;6.00;1.00;;;;;;5068336;28;20230;-78
2021/11/23 08:25:09;;;;;;;21.63;13.45;;;6.00;1.00;;;;;;5068227;28;20209;-79
2021/11/23 08:27:37;;;;;;;19.70;13.20;;;5.90;1.00;;;;;;5069220;28;20989;-78
2021/11/23 08:30:05;;;;;;;21.35;14.32;;;6.00;1.00;;;;;;5070301;28;20754;-77
2021/11/23 08:32:32;;;;;;;22.42;14.50;;;6.10;1.00;;;;;;5072002;28;20248;-78
2021/11/23 08:35:01;;;;;;;20.70;15.77;;;6.10;1.00;;;;;;5073381;28;20378;-80
2021/11/23 08:37:28;;;;;;;20.27;13.43;;;6.10;1.00;;;;;;5056151;28;20298;-79
2021/11/23 08:39:56;;;;;;;18.55;13.80;;;6.20;1.00;;;;;;5075681;28;20230;-77
2021/11/23 08:42:24;;;;;;;20.15;13.02;;;6.20;1.00;;;;;;5073223;28;20228;-78
2021/11/23 08:44:53;;;;;;;20.50;13.60;;;6.20;1.00;;;;;;5052346;28;20382;-78
2021/11/23 08:47:21;;;;;;;19.88;14.57;;;6.30;1.00;;;;;;5067167;28;20221;-82
2021/11/23 08:49:48;;;;;;;22.55;15.27;;;6.30;1.00;;;;;;5073172;28;20254;-78
2021/11/23 08:52:18;;;;;;;22.17;14.27;;;6.20;1.00;;;;;;5057797;28;20251;-76
2021/11/23 08:54:45;;;;;;;17.20;12.95;;;6.20;1.00;;;;;;5064749;28;20986;-78
2021/11/23 08:57:15;;;;;;;19.17;14.50;;;6.20;1.00;;;;;;5061113;28;21444;-77
2021/11/23 08:59:43;;;;;;;20.75;14.60;;;6.30;1.00;;;;;;5058563;28;20240;-77
2021/11/23 09:02:13;;;;;;;18.02;13.30;;;6.30;1.00;;;;;;5071253;28;20220;-78
2021/11/23 09:04:41;;;;;;;17.88;13.52;;;6.40;1.00;;;;;;5066731;28;20216;-78
2021/11/23 09:07:11;;;;;;;17.00;13.25;;;6.40;1.00;;;;;;5076174;28;20231;-78
2021/11/23 09:09:42;;;;;;;17.83;12.10;;;6.40;1.00;;;;;;5065993;28;20220;-78
2021/11/23 09:12:10;;;;;;;19.80;12.70;;;6.50;1.00;;;;;;5069217;28;20727;-79
2021/11/23 09:14:38;;;;;;;19.98;12.77;;;6.50;1.00;;;;;;5066241;28;20379;-79
2021/11/23 09:17:06;;;;;;;17.02;12.77;;;6.50;1.00;;;;;;5071753;28;20221;-78
2021/11/23 09:19:34;;;;;;;18.23;13.30;;;6.40;1.00;;;;;;5071553;28;20227;-78
2021/11/23 09:22:02;;;;;;;20.58;13.70;;;6.50;1.00;;;;;;5057726;28;20260;-78
2021/11/23 09:24:29;;;;;;;16.17;13.20;;;6.60;1.00;;;;;;5069239;28;20213;-77
2021/11/23 09:26:57;;;;;;;20.77;13.05;;;6.60;1.00;;;;;;5059706;28;20231;-78
2021/11/23 09:29:24;;;;;;;22.67;14.10;;;6.60;1.00;;;;;;5069116;28;20235;-78
2021/11/23 09:31:52;;;;;;;17.75;14.25;;;6.60;1.00;;;;;;5069120;28;20221;-78
2021/11/23 09:34:20;;;;;;;18.75;13.43;;;6.70;1.00;;;;;;5071141;28;20259;-77
2021/11/23 09:36:48;;;;;;;18.30;12.98;;;6.60;1.00;;;;;;5070867;28;20228;-77
2021/11/23 09:39:15;;;;;;;18.23;12.60;;;6.60;1.00;;;;;;5068697;28;20276;-77
2021/11/23 09:41:42;;;;;;;21.90;13.93;;;6.60;1.00;;;;;;5070586;28;20714;-78
2021/11/23 09:44:10;;;;;;;24.15;13.98;;;6.60;1.00;;;;;;5068753;28;20228;-78
2021/11/23 09:46:39;;;;;;;16.98;12.20;;;6.60;1.00;;;;;;5069489;28;20235;-80
2021/11/23 09:49:10;;;;;;;26.85;13.48;;;6.60;1.00;;;;;;5068481;28;20221;-78
2021/11/23 09:51:38;;;;;;;26.55;13.23;;;6.60;1.00;;;;;;5072075;28;20228;-77
2021/11/23 09:54:08;;;;;;;20.73;13.65;;;6.70;1.00;;;;;;5070211;28;20268;-82
2021/11/23 09:56:37;;;;;;;18.35;11.90;;;6.70;1.00;;;;;;5072398;28;20230;-77
2021/11/23 09:59:05;;;;;;;19.48;11.40;;;6.70;1.00;;;;;;5066320;28;20215;-79
2021/11/23 10:01:47;;;;;;;20.38;14.00;;;6.60;1.00;;;;;;5070544;28;20216;-79
2021/11/23 10:04:15;;;;;;;18.73;12.57;;;6.70;1.00;;;;;;5073464;28;21947;-79
2021/11/23 10:06:54;;;;;;;26.90;16.48;;;6.60;1.00;;;;;;5075811;28;20216;-77
2021/11/23 10:09:30;;;;;;;17.65;13.52;;;6.70;1.00;;;;;;5072091;28;20276;-79
2021/11/23 10:12:16;;;;;;;19.75;12.93;;;6.60;1.00;;;;;;5072543;28;20228;-80
2021/11/23 10:15:08;;;;;;;22.25;14.85;;;6.70;1.00;;;;;;5077609;28;20238;-76
2021/11/23 10:17:37;;;;;;;19.77;13.63;;;6.70;1.00;;;;;;5073488;28;20299;-80
2021/11/23 10:20:05;;;;;;;19.67;13.77;;;6.80;1.00;;;;;;5073991;28;20221;-77
2021/11/23 10:22:36;;;;;;;23.55;14.85;;;6.80;1.00;;;;;;5072181;28;20315;-78
2021/11/23 10:25:05;;;;;;;20.92;14.38;;;6.90;1.00;;;;;;5072659;28;20235;-77
2021/11/23 10:27:33;;;;;;;22.63;14.82;;;6.80;1.00;;;;;;5072634;28;20343;-78
2021/11/23 10:30:01;;;;;;;19.35;13.10;;;6.80;1.00;;;;;;5069354;28;20227;-79
2021/11/23 10:32:28;;;;;;;21.10;11.98;;;6.80;1.00;;;;;;5073713;28;20229;-78
2021/11/23 10:34:56;;;;;;;19.13;12.90;;;6.90;1.00;;;;;;5082305;28;20468;-77
2021/11/23 10:37:30;;;;;;;18.77;13.82;;;6.90;1.00;;;;;;5080261;28;20220;-78
2021/11/23 10:40:14;;;;;;;20.83;13.15;;;7.00;1.00;;;;;;5080011;28;20224;-78
2021/11/23 10:42:42;;;;;;;19.77;14.40;;;6.90;1.00;;;;;;5084254;28;20216;-77
2021/11/23 10:45:11;;;;;;;20.50;13.43;;;6.90;1.00;;;;;;5078990;28;20216;-77
2021/11/23 10:47:42;;;;;;;21.63;13.45;;;6.90;1.00;;;;;;5071219;28;20426;-80
2021/11/23 10:50:12;;;;;;;19.98;14.40;;;6.90;1.00;;;;;;5068658;28;20638;-77
2021/11/23 10:52:44;;;;;;;20.30;15.27;;;6.90;1.00;;;;;;5077875;28;20225;-77
2021/11/23 10:55:27;;;;;;;22.58;15.10;;;6.90;1.00;;;;;;5066881;28;20320;-78
2021/11/23 10:57:57;;;;;;;17.45;14.02;;;6.90;1.00;;;;;;5070701;28;20231;-80
2021/11/23 11:00:28;;;;;;;20.65;14.10;;;7.00;1.00;;;;;;5049714;28;20355;-78
2021/11/23 11:02:59;;;;;;;20.60;13.80;;;7.00;1.00;;;;;;5067668;28;20213;-78
2021/11/23 11:05:28;;;;;;;19.65;13.85;;;7.10;1.00;;;;;;5067827;28;20212;-77
2021/11/23 11:08:02;;;;;;;18.50;13.75;;;7.00;1.00;;;;;;5065208;28;20712;-79
2021/11/23 11:10:31;;;;;;;18.67;13.80;;;7.10;1.00;;;;;;5065008;28;20334;-80
2021/11/23 11:12:59;;;;;;;17.58;13.65;;;7.00;1.00;;;;;;5062613;28;21307;-76
2021/11/23 11:15:32;;;;;;;18.05;13.60;;;6.90;1.00;;;;;;5073628;28;20298;-78
2021/11/23 11:18:01;;;;;;;18.58;13.52;;;7.00;1.00;;;;;;5065149;28;20281;-78
2021/11/23 11:20:46;;;;;;;19.45;12.68;;;7.00;1.00;;;;;;5073860;28;20307;-78
2021/11/23 11:23:15;;;;;;;18.35;13.05;;;7.10;1.00;;;;;;5071218;28;20230;-78
2021/11/23 11:26:21;;;;;;;17.85;13.00;;;7.10;1.00;;;;;;5068123;28;20281;-78
2021/11/23 11:28:51;;;;;;;20.73;14.32;;;7.10;1.00;;;;;;5080763;28;20294;-78
2021/11/23 11:31:46;;;;;;;19.13;13.77;;;7.10;1.00;;;;;;5081943;28;21057;-79
2021/11/23 11:34:30;;;;;;;20.52;12.85;;;7.20;1.00;;;;;;5079506;28;20239;-78
2021/11/23 11:37:11;;;;;;;19.30;13.00;;;7.20;1.00;;;;;;5081510;28;20217;-81
2021/11/23 11:39:47;;;;;;;23.00;13.85;;;7.20;1.00;;;;;;5076535;28;20236;-77
2021/11/23 11:42:48;;;;;;;17.17;12.60;;;7.20;1.00;;;;;;5066749;28;20282;-79
2021/11/23 11:45:15;;;;;;;17.60;12.20;;;7.30;1.00;;;;;;5075626;28;20259;-80
2021/11/23 11:47:44;;;;;;;15.50;12.60;;;7.30;1.00;;;;;;5063118;28;20300;-78
2021/11/23 11:50:19;;;;;;;16.45;11.45;;;7.40;1.00;;;;;;5069440;28;20855;-78
2021/11/23 11:53:15;;;;;;;17.60;12.75;;;7.40;1.00;;;;;;5081124;28;20418;-78
2021/11/23 11:55:53;;;;;;;16.23;12.65;;;7.40;1.00;;;;;;5074923;28;20221;-78
2021/11/23 11:58:53;;;;;;;17.58;12.23;;;7.40;1.00;;;;;;5078899;28;20228;-80
2021/11/23 12:01:26;;;;;;;23.55;14.38;;;7.40;1.00;;;;;;5077138;28;20221;-80
2021/11/23 12:04:09;;;;;;;17.23;12.20;;;7.30;1.00;;;;;;5082343;28;20247;-78
2021/11/23 12:07:27;;;;;;;13.57;10.20;;;7.40;1.00;;;;;;5074362;28;20228;-77
2021/11/23 12:09:57;;;;;;;16.05;11.45;;;7.40;1.00;;;;;;5033193;28;20247;-79
2021/11/23 12:12:52;;;;;;;16.45;11.65;;;7.40;1.00;;;;;;5071735;28;20248;-78
2021/11/23 12:15:51;;;;;;;18.83;11.48;;;7.50;1.00;;;;;;5078030;28;20236;-80
2021/11/23 12:18:31;;;;;;;18.40;13.90;;;7.50;1.00;;;;;;5077544;28;20283;-79
2021/11/23 12:21:04;;;;;;;18.20;12.35;;;7.50;1.00;;;;;;5068921;28;20305;-79
2021/11/23 12:23:37;;;;;;;17.80;11.40;;;7.50;1.00;;;;;;5075229;28;20220;-82
2021/11/23 12:26:10;;;;;;;16.08;12.20;;;7.50;1.00;;;;;;5080542;28;20255;-78
2021/11/23 12:28:37;;;;;;;17.45;12.73;;;7.50;1.00;;;;;;5073896;28;20285;-78
2021/11/23 12:31:10;;;;;;;17.40;13.00;;;7.50;1.00;;;;;;5084290;28;20235;-79
2021/11/23 12:33:48;;;;;;;15.57;11.82;;;7.50;1.00;;;;;;5077731;28;20279;-78
2021/11/23 12:36:19;;;;;;;15.07;10.75;;;7.60;1.00;;;;;;5074735;28;21076;-80
2021/11/23 12:38:47;;;;;;;20.17;11.82;;;7.70;1.00;;;;;;5070265;28;20273;-79
2021/11/23 12:41:17;;;;;;;19.00;12.27;;;7.70;1.00;;;;;;5071938;28;20216;-79
2021/11/23 12:43:47;;;;;;;15.18;11.18;;;7.60;1.00;;;;;;5076255;28;20218;-79
2021/11/23 12:46:17;;;;;;;21.58;12.60;;;7.70;1.00;;;;;;5079457;28;20231;-78
2021/11/23 12:48:45;;;;;;;15.85;11.70;;;7.70;1.00;;;;;;5080308;28;20219;-78
2021/11/23 12:51:29;;;;;;;15.90;10.95;;;7.70;1.00;;;;;;5075342;28;20277;-78
2021/11/23 12:54:00;;;;;;;16.60;11.73;;;7.70;1.00;;;;;;5075847;28;20224;-80
2021/11/23 12:56:50;;;;;;;22.63;13.63;;;7.70;1.00;;;;;;5071840;28;20229;-79
2021/11/23 12:59:39;;;;;;;16.40;11.73;;;7.70;1.00;;;;;;5055213;28;22248;-78
2021/11/23 13:02:31;;;;;;;22.05;12.68;;;7.70;1.00;;;;;;5068296;28;20259;-79
2021/11/23 13:05:00;;;;;;;15.85;10.85;;;7.80;1.00;;;;;;5061533;28;20991;-77